createdAt,value
2022-09-07T00:01:07.706Z,1.83
2022-09-07T00:06:16.115Z,2.75
2022-09-07T00:11:22.122Z,1.80
2022-09-07T00:16:30.110Z,2.72
2022-09-07T00:21:36.676Z,2.22
2022-09-07T00:26:41.889Z,2.13
2022-09-07T00:31:46.885Z,2.50
2022-09-07T00:36:53.172Z,2.20
2022-09-07T00:41:57.856Z,1.77
2022-09-07T00:47:03.217Z,2.63
2022-09-07T00:52:12.880Z,1.98
2022-09-07T00:57:17.601Z,2.20
2022-09-07T01:02:22.800Z,2.90
2022-09-07T01:07:29.915Z,2.53
2022-09-07T01:12:34.825Z,2.50
2022-09-07T01:17:51.263Z,3.28
2022-09-07T01:23:29.360Z,2.28
2022-09-07T01:28:36.981Z,3.25
2022-09-07T01:33:52.348Z,2.55
2022-09-07T01:39:01.080Z,2.53
2022-09-07T01:44:14.378Z,2.15
2022-09-07T01:49:23.542Z,2.70
2022-09-07T01:54:33.956Z,3.03
2022-09-07T01:59:44.663Z,2.33
2022-09-07T02:04:54.402Z,2.53
2022-09-07T02:10:02.837Z,2.83
2022-09-07T02:15:15.863Z,2.15
2022-09-07T02:20:24.111Z,3.58
2022-09-07T02:25:34.293Z,2.25
2022-09-07T02:30:41.150Z,2.60
2022-09-07T02:35:46.220Z,2.58
2022-09-07T02:40:53.858Z,2.50
2022-09-07T02:46:19.133Z,2.47
2022-09-07T02:51:34.117Z,2.25
2022-09-07T02:56:58.599Z,2.55
2022-09-07T03:02:13.892Z,3.75
2022-09-07T03:07:21.426Z,2.95
2022-09-07T03:12:26.331Z,3.15
2022-09-07T03:17:32.195Z,3.30
2022-09-07T03:22:36.934Z,2.67
2022-09-07T03:27:41.539Z,3.42
2022-09-07T03:32:48.280Z,2.97
2022-09-07T03:37:52.728Z,2.95
2022-09-07T03:42:57.716Z,3.00
2022-09-07T03:48:04.137Z,3.10
2022-09-07T03:53:08.994Z,4.00
2022-09-07T03:58:13.591Z,3.03
2022-09-07T04:03:19.594Z,3.28
2022-09-07T04:08:28.107Z,2.70
2022-09-07T04:13:33.852Z,3.15
2022-09-07T04:18:40.644Z,2.22
2022-09-07T04:23:45.874Z,3.22
2022-09-07T04:28:51.527Z,2.72
2022-09-07T04:33:58.147Z,3.67
2022-09-07T04:39:04.692Z,2.85
2022-09-07T04:44:12.572Z,3.58
2022-09-07T04:49:21.359Z,4.05
2022-09-07T04:54:26.746Z,3.58
2022-09-07T04:59:31.930Z,3.70
2022-09-07T05:04:38.552Z,4.03
2022-09-07T05:09:43.660Z,3.53
2022-09-07T05:14:48.568Z,4.18
2022-09-07T05:19:55.340Z,7.13
2022-09-07T05:25:00.959Z,4.97
2022-09-07T05:30:06.606Z,4.40
2022-09-07T05:35:14.898Z,4.25
2022-09-07T05:40:19.709Z,4.18
2022-09-07T05:45:24.612Z,3.72
2022-09-07T05:50:30.655Z,4.43
2022-09-07T05:55:35.857Z,4.07
2022-09-07T06:00:40.552Z,4.10
2022-09-07T06:05:47.261Z,4.05
2022-09-07T06:10:51.980Z,3.83
2022-09-07T06:15:56.863Z,5.18
2022-09-07T06:21:06.474Z,4.60
2022-09-07T06:26:13.214Z,4.25
2022-09-07T06:31:20.322Z,4.65
2022-09-07T06:36:29.053Z,5.07
2022-09-07T06:52:11.485Z,5.80
2022-09-07T06:57:15.825Z,5.88
2022-09-07T07:02:20.075Z,6.05
2022-09-07T07:07:27.089Z,6.47
2022-09-07T07:17:35.249Z,4.95
2022-09-07T07:22:48.409Z,6.00
2022-09-07T07:27:53.546Z,5.28
2022-09-07T07:32:59.477Z,5.53
2022-09-07T07:43:32.065Z,4.88
2022-09-07T07:48:37.988Z,5.10
2022-09-07T07:53:44.606Z,4.90
2022-09-07T07:58:49.764Z,4.47
2022-09-07T08:03:54.504Z,4.75
2022-09-07T08:09:00.679Z,4.80
2022-09-07T08:14:06.291Z,4.70
2022-09-07T08:19:10.758Z,4.80
2022-09-07T08:24:16.719Z,4.40
2022-09-07T08:29:21.261Z,4.50
2022-09-07T08:34:25.981Z,5.43
2022-09-07T08:39:31.763Z,5.22
2022-09-07T08:44:43.234Z,5.38
2022-09-07T08:49:54.672Z,5.18
2022-09-07T08:55:05.023Z,4.35
2022-09-07T09:00:15.673Z,4.32
2022-09-07T09:05:29.568Z,5.30
2022-09-07T09:10:45.144Z,5.18
2022-09-07T09:16:01.062Z,4.70
2022-09-07T09:21:10.348Z,4.57
2022-09-07T09:26:23.221Z,5.00
2022-09-07T09:31:34.768Z,4.25
2022-09-07T09:36:45.992Z,4.32
2022-09-07T09:41:51.982Z,4.45
2022-09-07T09:52:30.737Z,4.00
2022-09-07T10:08:57.229Z,4.68
2022-09-07T10:14:04.870Z,3.88
2022-09-07T10:19:26.948Z,3.80
2022-09-07T10:24:38.095Z,3.10
2022-09-07T10:29:44.316Z,3.47
2022-09-07T10:35:02.327Z,3.45
2022-09-07T10:40:22.462Z,3.50
2022-09-07T10:45:39.799Z,3.30
2022-09-07T10:50:50.844Z,3.67
2022-09-07T10:56:06.754Z,3.67
2022-09-07T11:01:22.795Z,3.30
2022-09-07T11:06:33.962Z,3.55
2022-09-07T11:17:17.344Z,3.45
2022-09-07T11:22:31.946Z,3.45
2022-09-07T11:27:42.793Z,3.20
2022-09-07T11:32:55.671Z,3.78
2022-09-07T11:38:06.746Z,3.33
2022-09-07T11:43:20.686Z,3.30
2022-09-07T11:48:31.281Z,3.47
2022-09-07T11:53:40.126Z,3.63
2022-09-07T11:59:17.956Z,3.47
2022-09-07T12:04:51.718Z,3.42
2022-09-07T12:10:24.910Z,4.00
2022-09-07T12:15:38.117Z,3.50
2022-09-07T12:20:45.761Z,3.25
2022-09-07T12:25:52.369Z,3.35
2022-09-07T12:31:00.803Z,4.28
2022-09-07T12:36:47.556Z,3.73
2022-09-07T12:42:32.256Z,3.70
2022-09-07T12:47:37.056Z,3.50
2022-09-07T12:53:04.944Z,3.70
2022-09-07T12:58:31.501Z,4.13
2022-09-07T13:04:02.479Z,3.58
2022-09-07T13:09:30.640Z,3.35
2022-09-07T13:14:42.852Z,12.80
2022-09-07T13:20:30.666Z,2.75
2022-09-07T13:25:48.064Z,3.30
2022-09-07T13:31:06.853Z,3.25
2022-09-07T13:36:22.234Z,2.85
2022-09-07T13:41:33.369Z,3.05
2022-09-07T13:46:51.991Z,2.60
2022-09-07T13:52:04.876Z,3.17
2022-09-07T13:57:20.953Z,2.25
2022-09-07T14:02:30.501Z,2.80
2022-09-07T14:07:34.998Z,2.35
2022-09-07T14:12:46.549Z,2.85
2022-09-07T14:18:01.907Z,3.45
2022-09-07T14:23:12.989Z,2.63
2022-09-07T14:28:37.561Z,2.30
2022-09-07T14:33:51.790Z,2.33
2022-09-07T14:39:04.767Z,2.72
2022-09-07T14:44:29.375Z,2.75
2022-09-07T14:49:36.345Z,2.50
2022-09-07T14:54:41.624Z,3.20
2022-09-07T14:59:47.355Z,3.45
2022-09-07T15:05:27.920Z,3.83
2022-09-07T15:10:41.629Z,3.58
2022-09-07T15:15:58.806Z,3.80
2022-09-07T15:21:05.172Z,3.70
2022-09-07T15:27:02.034Z,3.78
2022-09-07T15:31:42.535Z,3.17
2022-09-07T15:36:52.482Z,3.00
2022-09-07T15:41:58.197Z,3.35
2022-09-07T15:52:33.097Z,3.60
2022-09-07T15:58:02.161Z,3.38
2022-09-07T16:03:05.661Z,2.92
2022-09-07T16:08:32.670Z,3.72
2022-09-07T16:13:38.093Z,3.03
2022-09-07T16:18:46.593Z,3.25
2022-09-07T16:23:55.805Z,3.05
2022-09-07T16:29:01.493Z,3.63
2022-09-07T16:34:06.250Z,3.55
2022-09-07T16:39:12.752Z,3.42
2022-09-07T16:44:17.987Z,3.42
2022-09-07T16:49:22.837Z,3.85
2022-09-07T16:54:28.749Z,3.60
2022-09-07T16:59:33.073Z,3.75
2022-09-07T17:04:37.778Z,3.72
2022-09-07T17:09:44.163Z,4.57
2022-09-07T17:14:48.935Z,4.25
2022-09-07T17:19:53.410Z,3.85
2022-09-07T17:24:59.045Z,4.30
2022-09-07T17:30:06.578Z,4.18
2022-09-07T17:35:11.608Z,4.95
2022-09-07T17:40:18.057Z,4.30
2022-09-07T17:45:22.805Z,4.57
2022-09-07T17:50:27.926Z,4.40
2022-09-07T17:55:34.405Z,4.47
2022-09-07T18:00:40.737Z,4.20
2022-09-07T18:05:45.702Z,4.68
2022-09-07T18:16:19.647Z,4.32
2022-09-07T18:21:26.502Z,4.25
2022-09-07T18:26:33.664Z,4.30
2022-09-07T18:31:38.149Z,4.50
2022-09-07T18:36:43.939Z,5.88
2022-09-07T18:41:50.620Z,4.40
2022-09-07T18:46:55.322Z,4.15
2022-09-07T18:57:25.662Z,5.20
2022-09-07T19:02:30.025Z,5.40
2022-09-07T19:07:34.773Z,5.45
2022-09-07T19:12:45.069Z,6.28
2022-09-07T19:17:50.335Z,6.55
2022-09-07T19:22:56.259Z,7.13
2022-09-07T19:28:02.007Z,6.00
2022-09-07T19:33:10.119Z,5.72
2022-09-07T19:38:14.279Z,6.15
2022-09-07T19:43:20.051Z,6.05
2022-09-07T19:48:24.572Z,6.38
2022-09-07T19:53:33.078Z,5.32
2022-09-07T19:58:41.428Z,6.53
2022-09-07T20:03:49.760Z,7.37
2022-09-07T20:08:54.004Z,7.18
2022-09-07T20:13:59.714Z,6.60
2022-09-07T20:19:04.949Z,6.70
2022-09-07T20:24:09.693Z,5.80
2022-09-07T20:29:27.400Z,6.63
2022-09-07T20:34:33.769Z,6.57
2022-09-07T20:39:39.672Z,6.28
2022-09-07T20:44:46.345Z,6.05
2022-09-07T20:49:52.420Z,6.93
2022-09-07T20:54:56.718Z,6.55
2022-09-07T21:00:02.768Z,5.82
2022-09-07T21:05:08.039Z,6.18
2022-09-07T21:10:12.390Z,6.22
2022-09-07T21:15:18.969Z,6.40
2022-09-07T21:20:23.247Z,6.45
2022-09-07T21:25:28.136Z,5.57
2022-09-07T21:30:33.946Z,6.20
2022-09-07T21:35:38.633Z,7.75
2022-09-07T21:40:43.069Z,6.72
2022-09-07T21:45:49.794Z,7.05
2022-09-07T21:50:58.085Z,6.10
2022-09-07T21:56:05.232Z,5.93
2022-09-07T22:01:17.378Z,6.70
2022-09-07T22:06:22.323Z,6.50
2022-09-07T22:11:28.551Z,5.70
2022-09-07T22:16:36.161Z,6.32
2022-09-07T22:21:41.061Z,5.18
2022-09-07T22:26:46.645Z,6.20
2022-09-07T22:31:52.586Z,5.57
2022-09-07T22:36:57.431Z,6.13
2022-09-07T22:42:01.859Z,6.00
2022-09-07T22:47:07.861Z,6.90
2022-09-07T22:52:13.022Z,5.93
2022-09-07T22:57:17.506Z,6.47
2022-09-07T23:02:23.614Z,5.90
2022-09-07T23:07:28.126Z,6.00
2022-09-07T23:12:32.649Z,6.55
2022-09-07T23:17:38.556Z,6.70
2022-09-07T23:22:45.433Z,6.47
2022-09-07T23:27:50.131Z,5.88
2022-09-07T23:32:56.882Z,6.57
2022-09-07T23:38:01.289Z,6.75
2022-09-07T23:43:05.987Z,6.38
2022-09-07T23:48:11.649Z,6.75
2022-09-07T23:53:16.692Z,6.35
2022-09-07T23:58:22.911Z,6.68
